createdAt,value
2022-10-30T00:01:14.687Z,11.85
2022-10-30T00:03:42.348Z,9.48
2022-10-30T00:06:10.264Z,9.23
2022-10-30T00:08:37.939Z,8.68
2022-10-30T00:11:23.821Z,8.10
2022-10-30T00:13:51.443Z,8.52
2022-10-30T00:16:19.324Z,7.62
2022-10-30T00:18:46.973Z,6.72
2022-10-30T00:21:16.659Z,6.82
2022-10-30T00:23:52.264Z,7.65
2022-10-30T00:26:21.775Z,6.95
2022-10-30T00:28:54.332Z,7.68
2022-10-30T00:31:23.301Z,6.87
2022-10-30T00:33:55.434Z,7.93
2022-10-30T00:36:23.537Z,6.43
2022-10-30T00:38:51.359Z,7.60
2022-10-30T00:41:24.815Z,7.53
2022-10-30T00:43:53.592Z,7.68
2022-10-30T00:46:25.958Z,6.25
2022-10-30T00:49:04.261Z,8.27
2022-10-30T00:51:34.435Z,7.03
2022-10-30T00:54:06.656Z,7.45
2022-10-30T00:56:34.761Z,6.70
2022-10-30T00:59:07.773Z,6.68
2022-10-30T01:01:39.800Z,7.10
2022-10-30T01:04:08.320Z,8.45
2022-10-30T01:06:41.105Z,8.50
2022-10-30T01:09:08.951Z,7.47
2022-10-30T01:11:36.640Z,7.43
2022-10-30T01:14:08.384Z,7.45
2022-10-30T01:17:17.504Z,8.30
2022-10-30T01:20:16.298Z,7.43
2022-10-30T01:23:13.165Z,8.90
2022-10-30T01:26:12.988Z,8.73
2022-10-30T01:28:59.400Z,9.82
2022-10-30T01:31:46.936Z,8.32
2022-10-30T01:34:56.342Z,9.32
2022-10-30T01:37:32.191Z,9.85
2022-10-30T01:40:10.646Z,11.05
2022-10-30T01:42:54.606Z,8.02
2022-10-30T01:45:49.241Z,9.95
2022-10-30T01:48:16.799Z,9.70
2022-10-30T01:51:03.075Z,8.63
2022-10-30T01:53:42.873Z,9.05
2022-10-30T01:56:22.985Z,8.25
2022-10-30T01:58:50.559Z,8.30
2022-10-30T02:01:19.650Z,8.40
2022-10-30T02:03:47.771Z,8.30
2022-10-30T02:06:15.453Z,8.20
2022-10-30T02:08:43.075Z,7.72
2022-10-30T02:11:11.640Z,8.45
2022-10-30T02:13:39.395Z,7.97
2022-10-30T02:16:07.557Z,7.82
2022-10-30T02:18:35.243Z,8.20
2022-10-30T02:21:03.360Z,7.75
2022-10-30T02:23:31.088Z,7.97
2022-10-30T02:25:58.750Z,6.80
2022-10-30T02:28:26.372Z,7.57
2022-10-30T02:30:54.032Z,7.80
2022-10-30T02:33:21.732Z,8.50
2022-10-30T02:35:49.340Z,9.00
2022-10-30T02:38:16.940Z,7.93
2022-10-30T02:40:44.536Z,7.78
2022-10-30T02:43:12.205Z,8.73
2022-10-30T02:45:39.795Z,8.45
2022-10-30T02:48:08.270Z,9.38
2022-10-30T02:50:36.005Z,7.93
2022-10-30T02:53:03.694Z,8.45
2022-10-30T02:55:31.317Z,9.10
2022-10-30T02:57:58.879Z,9.23
2022-10-30T03:00:26.467Z,10.73
2022-10-30T03:02:57.974Z,8.32
2022-10-30T03:05:26.469Z,9.30
2022-10-30T03:07:56.486Z,7.65
2022-10-30T03:10:24.407Z,7.55
2022-10-30T03:12:52.066Z,8.90
2022-10-30T03:15:19.754Z,9.18
2022-10-30T03:17:47.408Z,9.00
2022-10-30T03:20:15.008Z,8.57
2022-10-30T03:22:42.613Z,8.35
2022-10-30T03:25:10.593Z,8.32
2022-10-30T03:27:38.232Z,8.77
2022-10-30T03:30:06.199Z,9.15
2022-10-30T03:32:33.774Z,8.80
2022-10-30T03:35:01.434Z,8.73
2022-10-30T03:37:29.034Z,9.43
2022-10-30T03:39:56.642Z,7.80
2022-10-30T03:42:24.282Z,7.95
2022-10-30T03:44:51.893Z,8.95
2022-10-30T03:47:19.500Z,7.30
2022-10-30T03:49:47.070Z,7.60
2022-10-30T03:52:14.702Z,8.98
2022-10-30T03:54:42.309Z,7.65
2022-10-30T03:57:09.922Z,6.57
2022-10-30T03:59:37.581Z,6.93
2022-10-30T04:02:05.374Z,8.60
2022-10-30T04:04:33.117Z,7.60
2022-10-30T04:07:00.735Z,8.15
2022-10-30T04:09:28.370Z,9.45
2022-10-30T04:11:55.977Z,8.10
2022-10-30T04:14:23.599Z,9.13
2022-10-30T04:16:51.190Z,8.10
2022-10-30T04:19:18.796Z,8.45
2022-10-30T04:21:48.839Z,8.25
2022-10-30T04:24:18.270Z,8.63
2022-10-30T04:26:46.161Z,8.65
2022-10-30T04:29:13.788Z,9.18
2022-10-30T04:31:41.399Z,7.95
2022-10-30T04:34:09.112Z,7.90
2022-10-30T04:36:36.720Z,7.47
2022-10-30T04:39:04.570Z,8.60
2022-10-30T04:41:32.427Z,8.48
2022-10-30T04:44:00.071Z,8.90
2022-10-30T04:46:27.685Z,7.68
2022-10-30T04:48:55.558Z,8.48
2022-10-30T04:51:23.235Z,9.07
2022-10-30T04:53:50.857Z,8.50
2022-10-30T04:56:18.512Z,8.23
2022-10-30T04:58:46.128Z,8.60
2022-10-30T05:01:13.990Z,8.20
2022-10-30T05:03:41.666Z,8.10
2022-10-30T05:06:27.288Z,8.00
2022-10-30T05:08:55.915Z,8.25
2022-10-30T05:11:23.672Z,7.68
2022-10-30T05:13:51.306Z,8.30
2022-10-30T05:16:18.949Z,7.60
2022-10-30T05:18:46.595Z,6.72
2022-10-30T05:21:14.277Z,7.65
2022-10-30T05:23:41.944Z,7.85
2022-10-30T05:26:09.525Z,6.05
2022-10-30T05:28:37.173Z,5.55
2022-10-30T05:31:04.832Z,5.72
2022-10-30T05:33:32.480Z,5.85
2022-10-30T05:36:00.124Z,5.70
2022-10-30T05:38:27.711Z,5.78
2022-10-30T05:40:55.301Z,5.85
2022-10-30T05:43:22.948Z,6.50
2022-10-30T05:45:51.266Z,5.43
2022-10-30T05:48:18.951Z,5.35
2022-10-30T05:50:46.695Z,6.22
2022-10-30T05:53:14.403Z,6.40
2022-10-30T05:55:42.012Z,5.60
2022-10-30T05:58:11.274Z,5.82
2022-10-30T06:00:40.307Z,6.25
2022-10-30T06:03:11.501Z,5.72
2022-10-30T06:05:39.314Z,6.65
2022-10-30T06:08:08.390Z,7.32
2022-10-30T06:10:36.244Z,6.87
2022-10-30T06:13:07.665Z,5.97
2022-10-30T06:15:35.396Z,6.37
2022-10-30T06:18:03.211Z,5.80
2022-10-30T06:20:32.078Z,5.85
2022-10-30T06:23:02.312Z,6.62
2022-10-30T06:25:36.439Z,6.25
2022-10-30T06:28:08.577Z,6.93
2022-10-30T06:30:36.164Z,7.10
2022-10-30T06:33:06.109Z,6.43
2022-10-30T06:35:33.887Z,7.22
2022-10-30T06:38:01.638Z,5.95
2022-10-30T06:40:31.078Z,7.07
2022-10-30T06:42:59.578Z,6.15
2022-10-30T06:45:27.408Z,7.87
2022-10-30T06:47:55.369Z,5.12
2022-10-30T06:50:23.522Z,6.75
2022-10-30T06:52:51.387Z,6.35
2022-10-30T06:55:19.446Z,7.00
2022-10-30T06:57:47.156Z,6.35
2022-10-30T07:00:15.142Z,7.03
2022-10-30T07:02:42.806Z,5.90
2022-10-30T07:05:10.551Z,7.12
2022-10-30T07:07:38.207Z,7.12
2022-10-30T07:10:06.115Z,6.07
2022-10-30T07:12:33.759Z,6.70
2022-10-30T07:15:01.381Z,5.60
2022-10-30T07:17:29.051Z,5.95
2022-10-30T07:19:56.760Z,5.93
2022-10-30T07:22:24.423Z,5.03
2022-10-30T07:24:52.043Z,5.70
2022-10-30T07:27:19.702Z,4.97
2022-10-30T07:29:47.320Z,6.43
2022-10-30T07:32:14.984Z,5.75
2022-10-30T07:34:42.892Z,6.50
2022-10-30T07:37:10.516Z,6.28
2022-10-30T07:39:38.156Z,6.12
2022-10-30T07:42:05.897Z,6.87
2022-10-30T07:44:33.494Z,5.47
2022-10-30T07:47:01.109Z,5.65
2022-10-30T07:49:28.755Z,7.00
2022-10-30T07:51:56.354Z,7.25
2022-10-30T07:54:24.073Z,5.90
2022-10-30T07:56:51.661Z,6.53
2022-10-30T07:59:19.254Z,5.80
2022-10-30T08:01:47.081Z,5.87
2022-10-30T08:04:15.160Z,6.50
2022-10-30T08:06:42.767Z,7.20
2022-10-30T08:09:11.406Z,6.05
2022-10-30T08:11:39.060Z,5.50
2022-10-30T08:14:06.733Z,6.45
2022-10-30T08:16:34.387Z,5.75
2022-10-30T08:19:02.129Z,6.35
2022-10-30T08:21:29.695Z,5.97
2022-10-30T08:23:57.348Z,4.90
2022-10-30T08:26:24.928Z,5.47
2022-10-30T08:28:52.548Z,4.93
2022-10-30T08:31:20.201Z,5.95
2022-10-30T08:33:47.812Z,5.35
2022-10-30T08:36:15.417Z,6.70
2022-10-30T08:38:43.115Z,7.00
2022-10-30T08:41:10.801Z,7.62
2022-10-30T08:43:39.994Z,8.63
2022-10-30T08:46:07.649Z,7.12
2022-10-30T08:48:35.274Z,6.70
2022-10-30T08:51:03.057Z,7.72
2022-10-30T08:53:30.687Z,6.53
2022-10-30T08:55:58.269Z,6.57
2022-10-30T08:58:28.242Z,7.80
2022-10-30T09:01:01.016Z,7.00
2022-10-30T09:03:29.095Z,8.52
2022-10-30T09:05:59.994Z,7.07
2022-10-30T09:08:28.566Z,7.40
2022-10-30T09:10:59.591Z,7.43
2022-10-30T09:13:27.448Z,6.95
2022-10-30T09:15:55.057Z,7.37
2022-10-30T09:18:22.706Z,7.68
2022-10-30T09:20:50.695Z,5.82
2022-10-30T09:23:18.331Z,7.95
2022-10-30T09:25:45.951Z,6.93
2022-10-30T09:28:13.549Z,6.85
2022-10-30T09:30:41.174Z,6.75
2022-10-30T09:33:10.002Z,6.40
2022-10-30T09:35:38.191Z,6.45
2022-10-30T09:38:06.216Z,7.50
2022-10-30T09:40:46.026Z,6.28
2022-10-30T09:43:50.219Z,5.72
2022-10-30T09:46:36.026Z,5.62
2022-10-30T09:49:33.342Z,6.72
2022-10-30T09:52:15.321Z,6.18
2022-10-30T09:54:55.088Z,6.45
2022-10-30T09:57:37.489Z,6.43
2022-10-30T10:00:16.158Z,6.68
2022-10-30T10:03:04.069Z,6.60
2022-10-30T10:06:00.977Z,7.07
2022-10-30T10:09:02.289Z,7.70
2022-10-30T10:11:38.354Z,6.57
2022-10-30T10:14:16.023Z,7.47
2022-10-30T10:16:46.748Z,7.72
2022-10-30T10:19:34.575Z,7.95
2022-10-30T10:22:04.810Z,7.65
2022-10-30T10:24:36.321Z,7.68
2022-10-30T10:27:31.731Z,8.60
2022-10-30T10:29:59.285Z,8.90
2022-10-30T10:32:30.094Z,8.75
2022-10-30T10:35:08.475Z,9.07
2022-10-30T10:37:43.257Z,9.60
2022-10-30T10:40:13.861Z,9.25
2022-10-30T10:42:48.578Z,8.75
2022-10-30T10:45:26.179Z,8.85
2022-10-30T10:48:18.099Z,9.93
2022-10-30T10:50:53.072Z,8.60
2022-10-30T10:53:41.731Z,9.10
2022-10-30T10:56:11.285Z,8.98
2022-10-30T10:58:51.391Z,9.60
2022-10-30T11:01:25.886Z,10.32
2022-10-30T11:04:12.101Z,10.23
2022-10-30T11:06:47.542Z,10.18
2022-10-30T11:09:23.879Z,10.02
2022-10-30T11:11:53.503Z,10.15
2022-10-30T11:14:22.678Z,9.98
2022-10-30T11:16:59.355Z,11.52
2022-10-30T11:19:27.167Z,11.90
2022-10-30T11:21:56.386Z,11.90
2022-10-30T11:24:34.299Z,11.15
2022-10-30T11:27:31.734Z,12.75
2022-10-30T11:30:05.787Z,11.32
2022-10-30T11:32:35.935Z,11.85
2022-10-30T11:35:09.319Z,11.23
2022-10-30T11:37:40.024Z,11.30
2022-10-30T11:40:19.764Z,12.15
2022-10-30T11:43:03.386Z,11.30
2022-10-30T11:45:35.371Z,13.23
2022-10-30T11:48:05.191Z,10.70
2022-10-30T11:50:34.578Z,10.45
2022-10-30T11:53:11.450Z,10.57
2022-10-30T11:55:42.303Z,11.30
2022-10-30T11:58:11.060Z,11.85
2022-10-30T12:00:41.979Z,11.77
2022-10-30T12:03:29.963Z,10.73
2022-10-30T12:06:12.565Z,11.18
2022-10-30T12:08:40.152Z,11.38
2022-10-30T12:11:08.131Z,11.15
2022-10-30T12:13:40.655Z,9.82
2022-10-30T12:16:19.797Z,11.48
2022-10-30T12:18:59.257Z,9.00
2022-10-30T12:21:29.287Z,11.48
2022-10-30T12:24:04.520Z,11.68
2022-10-30T12:26:32.217Z,12.18
2022-10-30T12:29:03.689Z,11.85
2022-10-30T12:31:40.286Z,11.00
2022-10-30T12:34:19.385Z,11.07
2022-10-30T12:36:54.765Z,11.38
2022-10-30T12:39:43.092Z,11.60
2022-10-30T12:42:16.516Z,9.65
2022-10-30T12:44:54.208Z,10.43
2022-10-30T12:47:44.079Z,11.90
2022-10-30T12:50:28.344Z,9.20
2022-10-30T12:53:02.291Z,10.57
2022-10-30T12:55:40.897Z,10.73
2022-10-30T12:58:32.573Z,9.50
2022-10-30T13:01:14.879Z,9.45
2022-10-30T13:03:54.669Z,10.95
2022-10-30T13:06:28.938Z,9.88
2022-10-30T13:09:20.404Z,9.98
2022-10-30T13:12:02.096Z,10.23
2022-10-30T13:15:04.669Z,10.23
2022-10-30T13:17:32.510Z,9.65
2022-10-30T13:20:01.261Z,8.88
2022-10-30T13:22:35.059Z,7.75
2022-10-30T13:25:25.516Z,8.20
2022-10-30T13:27:59.256Z,7.78
2022-10-30T13:30:35.015Z,8.32
2022-10-30T13:33:14.763Z,9.10
2022-10-30T13:36:05.228Z,8.15
2022-10-30T13:38:48.323Z,8.02
2022-10-30T13:41:42.225Z,8.98
2022-10-30T13:44:43.821Z,7.55
2022-10-30T13:47:23.415Z,6.47
2022-10-30T13:50:08.350Z,7.05
2022-10-30T13:52:39.889Z,6.50
2022-10-30T13:55:49.254Z,6.37
2022-10-30T13:58:39.005Z,6.18
2022-10-30T14:01:16.423Z,5.95
2022-10-30T14:04:11.398Z,6.25
2022-10-30T14:06:57.755Z,5.80
2022-10-30T14:09:31.248Z,6.10
2022-10-30T14:12:03.386Z,5.47
2022-10-30T14:14:32.520Z,5.65
2022-10-30T14:17:11.369Z,5.60
2022-10-30T14:20:13.277Z,5.30
2022-10-30T14:22:42.053Z,6.10
2022-10-30T14:25:17.248Z,4.87
2022-10-30T14:27:56.292Z,5.25
2022-10-30T14:30:24.187Z,5.97
2022-10-30T14:32:53.542Z,5.87
2022-10-30T14:35:39.273Z,6.20
2022-10-30T14:38:23.938Z,6.53
2022-10-30T14:40:54.572Z,6.57
2022-10-30T14:43:37.540Z,6.87
2022-10-30T14:46:18.462Z,6.43
2022-10-30T14:49:14.214Z,6.53
2022-10-30T14:51:51.026Z,6.15
2022-10-30T14:54:23.414Z,6.03
2022-10-30T14:56:55.261Z,7.20
2022-10-30T14:59:31.504Z,7.10
2022-10-30T15:02:03.915Z,7.68
2022-10-30T15:05:07.127Z,8.25
2022-10-30T15:08:20.970Z,7.65
2022-10-30T15:11:06.860Z,8.45
2022-10-30T15:13:34.695Z,8.15
2022-10-30T15:16:06.633Z,8.95
2022-10-30T15:18:34.579Z,9.15
2022-10-30T15:21:06.868Z,8.55
2022-10-30T15:23:37.487Z,8.25
2022-10-30T15:26:19.066Z,8.32
2022-10-30T15:28:51.236Z,8.05
2022-10-30T15:31:18.879Z,9.75
2022-10-30T15:33:46.508Z,8.32
2022-10-30T15:36:42.154Z,9.07
2022-10-30T15:39:13.948Z,9.43
2022-10-30T15:41:51.072Z,9.95
2022-10-30T15:44:27.969Z,8.93
2022-10-30T15:46:57.692Z,9.23
2022-10-30T15:49:35.462Z,9.38
2022-10-30T15:52:06.628Z,8.40
2022-10-30T15:54:35.007Z,9.10
2022-10-30T15:57:36.942Z,8.93
2022-10-30T15:59:54.176Z,8.65
2022-10-30T16:02:24.675Z,8.65
2022-10-30T16:04:52.366Z,9.70
2022-10-30T16:07:25.974Z,9.63
2022-10-30T16:09:59.083Z,8.80
2022-10-30T16:12:28.641Z,9.95
2022-10-30T16:14:57.403Z,8.38
2022-10-30T16:17:26.883Z,7.80
2022-10-30T16:20:00.841Z,10.50
2022-10-30T16:22:33.018Z,9.43
2022-10-30T16:25:01.334Z,9.38
2022-10-30T16:27:29.001Z,9.30
2022-10-30T16:30:01.678Z,10.95
2022-10-30T16:32:32.259Z,9.63
2022-10-30T16:35:02.675Z,10.75
2022-10-30T16:37:37.487Z,9.88
2022-10-30T16:40:15.318Z,7.60
2022-10-30T16:42:48.824Z,8.38
2022-10-30T16:45:19.540Z,11.10
2022-10-30T16:47:52.638Z,11.88
2022-10-30T16:50:21.833Z,10.73
2022-10-30T16:52:50.725Z,11.05
2022-10-30T16:55:23.397Z,11.63
2022-10-30T16:57:59.164Z,11.68
2022-10-30T17:00:32.755Z,12.05
2022-10-30T17:03:09.543Z,11.18
2022-10-30T17:05:38.349Z,11.70
2022-10-30T17:08:18.942Z,11.48
2022-10-30T17:10:58.608Z,10.93
2022-10-30T17:13:35.162Z,12.98
2022-10-30T17:16:16.829Z,15.07
2022-10-30T17:18:46.590Z,14.00
2022-10-30T17:21:17.137Z,13.13
2022-10-30T17:23:50.322Z,11.12
2022-10-30T17:26:19.696Z,12.25
2022-10-30T17:28:48.647Z,11.85
2022-10-30T17:31:19.240Z,12.85
2022-10-30T17:33:48.572Z,12.43
2022-10-30T17:36:16.231Z,13.18
2022-10-30T17:38:44.076Z,12.20
2022-10-30T17:41:15.738Z,12.85
2022-10-30T17:43:53.281Z,11.55
2022-10-30T17:46:21.040Z,12.20
2022-10-30T17:48:48.756Z,14.25
2022-10-30T17:51:18.785Z,13.50
2022-10-30T17:53:49.295Z,14.05
2022-10-30T17:56:32.456Z,13.25
2022-10-30T17:59:00.124Z,12.10
2022-10-30T18:01:28.241Z,13.00
2022-10-30T18:03:56.848Z,12.23
2022-10-30T18:06:27.349Z,12.73
2022-10-30T18:08:55.453Z,14.05
2022-10-30T18:11:25.180Z,13.10
2022-10-30T18:13:53.955Z,13.98
2022-10-30T18:16:21.603Z,15.00
2022-10-30T18:18:49.508Z,16.58
2022-10-30T18:21:19.966Z,15.55
2022-10-30T18:23:55.070Z,16.90
2022-10-30T18:26:27.886Z,16.40
2022-10-30T18:28:55.780Z,16.30
2022-10-30T18:31:25.098Z,16.27
2022-10-30T18:33:53.198Z,12.65
2022-10-30T18:36:23.606Z,13.30
2022-10-30T18:38:53.160Z,11.85
2022-10-30T18:41:25.042Z,17.48
2022-10-30T18:43:52.721Z,14.32
2022-10-30T18:46:20.381Z,17.75
2022-10-30T18:48:48.123Z,16.45
2022-10-30T18:51:26.963Z,15.65
2022-10-30T18:53:55.981Z,15.35
2022-10-30T18:56:31.636Z,12.77
2022-10-30T18:59:01.980Z,17.25
2022-10-30T19:01:33.214Z,18.92
2022-10-30T19:04:05.153Z,17.50
2022-10-30T19:06:35.171Z,15.63
2022-10-30T19:09:03.089Z,15.15
2022-10-30T19:11:31.881Z,15.57
2022-10-30T19:14:00.637Z,17.95
2022-10-30T19:16:28.594Z,15.75
2022-10-30T19:18:56.239Z,11.60
2022-10-30T19:21:26.567Z,17.05
2022-10-30T19:23:56.129Z,12.80
2022-10-30T19:26:23.758Z,11.88
2022-10-30T19:28:51.356Z,15.32
2022-10-30T19:31:20.581Z,15.68
2022-10-30T19:33:52.895Z,15.23
2022-10-30T19:36:29.833Z,14.50
2022-10-30T19:38:57.628Z,14.82
2022-10-30T19:41:25.727Z,12.82
2022-10-30T19:43:54.319Z,13.18
2022-10-30T19:46:22.627Z,14.77
2022-10-30T19:48:59.049Z,14.02
2022-10-30T19:51:30.308Z,15.48
2022-10-30T19:53:58.006Z,15.30
2022-10-30T19:56:25.819Z,14.50
2022-10-30T19:58:53.418Z,14.85
2022-10-30T20:01:21.287Z,14.65
2022-10-30T20:03:49.076Z,14.60
2022-10-30T20:06:17.190Z,15.57
2022-10-30T20:08:44.856Z,13.30
2022-10-30T20:11:12.541Z,14.95
2022-10-30T20:13:40.211Z,13.75
2022-10-30T20:16:08.380Z,13.88
2022-10-30T20:18:37.168Z,13.75
2022-10-30T20:21:11.196Z,14.63
2022-10-30T20:23:39.727Z,13.18
2022-10-30T20:26:16.752Z,13.27
2022-10-30T20:28:46.035Z,14.93
2022-10-30T20:31:14.184Z,14.13
2022-10-30T20:33:41.856Z,12.90
2022-10-30T20:36:13.731Z,13.05
2022-10-30T20:38:41.664Z,13.93
2022-10-30T20:41:21.888Z,12.73
2022-10-30T20:43:51.201Z,12.52
2022-10-30T20:46:19.475Z,11.45
2022-10-30T20:48:47.364Z,12.57
2022-10-30T20:51:15.644Z,10.98
2022-10-30T20:53:43.362Z,11.20
2022-10-30T20:56:12.752Z,10.80
2022-10-30T20:58:41.027Z,10.23
2022-10-30T21:01:08.754Z,11.38
2022-10-30T21:03:36.480Z,11.43
2022-10-30T21:06:04.290Z,11.12
2022-10-30T21:08:35.158Z,12.35
2022-10-30T21:11:05.122Z,12.30
2022-10-30T21:13:35.120Z,13.85
2022-10-30T21:16:05.551Z,14.73
2022-10-30T21:18:33.525Z,13.75
2022-10-30T21:21:03.148Z,13.00
2022-10-30T21:23:31.332Z,13.77
2022-10-30T21:26:07.075Z,12.23
2022-10-30T21:28:34.841Z,12.75
2022-10-30T21:31:08.009Z,12.37
2022-10-30T21:33:37.249Z,12.88
2022-10-30T21:36:12.945Z,12.82
2022-10-30T21:38:45.656Z,11.10
2022-10-30T21:41:15.664Z,11.25
2022-10-30T21:43:44.008Z,10.90
2022-10-30T21:46:13.482Z,11.35
2022-10-30T21:48:41.234Z,10.30
2022-10-30T21:51:15.138Z,10.43
2022-10-30T21:53:43.422Z,9.93
2022-10-30T21:56:18.057Z,9.73
2022-10-30T21:58:46.181Z,11.30
2022-10-30T22:01:17.238Z,11.93
2022-10-30T22:03:45.313Z,11.50
2022-10-30T22:06:15.816Z,11.68
2022-10-30T22:08:47.566Z,11.77
2022-10-30T22:11:16.186Z,10.55
2022-10-30T22:13:44.111Z,11.40
2022-10-30T22:16:13.822Z,13.27
2022-10-30T22:18:42.088Z,14.55
2022-10-30T22:21:12.513Z,13.35
2022-10-30T22:23:41.257Z,13.00
2022-10-30T22:26:15.577Z,13.82
2022-10-30T22:28:44.179Z,14.10
2022-10-30T22:31:19.808Z,14.95
2022-10-30T22:33:47.830Z,15.15
2022-10-30T22:36:25.347Z,15.95
2022-10-30T22:39:16.037Z,13.65
2022-10-30T22:41:43.867Z,13.40
2022-10-30T22:44:18.485Z,12.65
2022-10-30T22:46:46.562Z,10.77
2022-10-30T22:49:14.184Z,11.93
2022-10-30T22:51:41.871Z,10.45
2022-10-30T22:54:15.210Z,10.77
2022-10-30T22:56:43.264Z,10.20
2022-10-30T22:59:13.500Z,10.00
2022-10-30T23:01:42.696Z,10.95
2022-10-30T23:04:12.179Z,9.00
2022-10-30T23:06:39.914Z,9.32
2022-10-30T23:09:15.557Z,8.95
2022-10-30T23:11:43.623Z,9.27
2022-10-30T23:14:11.235Z,9.00
2022-10-30T23:16:38.963Z,8.57
2022-10-30T23:19:06.613Z,10.32
2022-10-30T23:21:34.280Z,8.60
2022-10-30T23:24:05.265Z,8.85
2022-10-30T23:26:36.071Z,9.02
2022-10-30T23:29:04.882Z,9.80
2022-10-30T23:31:41.900Z,8.95
2022-10-30T23:34:15.155Z,9.38
2022-10-30T23:36:44.284Z,9.65
2022-10-30T23:39:15.812Z,9.77
2022-10-30T23:41:43.969Z,10.60
2022-10-30T23:44:14.513Z,10.10
2022-10-30T23:46:42.639Z,9.57
2022-10-30T23:49:10.248Z,8.85
2022-10-30T23:51:38.663Z,11.15
2022-10-30T23:54:06.304Z,10.40
2022-10-30T23:56:33.945Z,9.45
2022-10-30T23:59:01.947Z,9.80
